sensor_id;sensor_type;location;lat;lon;timestamp;temperature;humidity
65584;DHT22;62116;43.582;1.470;2022-10-31T00:02:03;20.26;76.87
65584;DHT22;62116;43.582;1.470;2022-10-31T00:04:28;20.26;76.99
65584;DHT22;62116;43.582;1.470;2022-10-31T00:06:54;20.24;77.19
65584;DHT22;62116;43.582;1.470;2022-10-31T00:09:19;20.24;77.22
65584;DHT22;62116;43.582;1.470;2022-10-31T00:11:44;20.24;77.05
65584;DHT22;62116;43.582;1.470;2022-10-31T00:14:10;20.21;77.09
65584;DHT22;62116;43.582;1.470;2022-10-31T00:16:35;20.27;77.00
65584;DHT22;62116;43.582;1.470;2022-10-31T00:19:03;20.19;77.29
65584;DHT22;62116;43.582;1.470;2022-10-31T00:21:29;20.21;77.18
65584;DHT22;62116;43.582;1.470;2022-10-31T00:23:57;20.21;76.99
65584;DHT22;62116;43.582;1.470;2022-10-31T00:26:22;20.14;77.20
65584;DHT22;62116;43.582;1.470;2022-10-31T00:28:48;20.10;77.37
65584;DHT22;62116;43.582;1.470;2022-10-31T00:31:14;20.12;77.41
65584;DHT22;62116;43.582;1.470;2022-10-31T00:33:40;20.13;77.56
65584;DHT22;62116;43.582;1.470;2022-10-31T00:36:06;20.10;77.61
65584;DHT22;62116;43.582;1.470;2022-10-31T00:38:32;20.07;77.71
65584;DHT22;62116;43.582;1.470;2022-10-31T00:40:58;20.05;77.86
65584;DHT22;62116;43.582;1.470;2022-10-31T00:43:24;19.97;78.05
65584;DHT22;62116;43.582;1.470;2022-10-31T00:45:49;19.99;77.95
65584;DHT22;62116;43.582;1.470;2022-10-31T00:48:15;20.00;77.83
65584;DHT22;62116;43.582;1.470;2022-10-31T00:50:40;19.99;77.87
65584;DHT22;62116;43.582;1.470;2022-10-31T00:53:06;19.97;77.78
65584;DHT22;62116;43.582;1.470;2022-10-31T00:55:32;19.97;77.70
65584;DHT22;62116;43.582;1.470;2022-10-31T00:57:57;19.99;77.45
65584;DHT22;62116;43.582;1.470;2022-10-31T01:00:22;19.99;77.36
65584;DHT22;62116;43.582;1.470;2022-10-31T01:02:48;19.97;77.28
65584;DHT22;62116;43.582;1.470;2022-10-31T01:05:13;20.00;77.11
65584;DHT22;62116;43.582;1.470;2022-10-31T01:07:40;19.99;77.06
65584;DHT22;62116;43.582;1.470;2022-10-31T01:10:07;20.00;76.94
65584;DHT22;62116;43.582;1.470;2022-10-31T01:12:40;19.99;76.73
65584;DHT22;62116;43.582;1.470;2022-10-31T01:15:06;19.99;76.68
65584;DHT22;62116;43.582;1.470;2022-10-31T01:17:32;19.96;76.80
65584;DHT22;62116;43.582;1.470;2022-10-31T01:19:57;19.93;76.48
65584;DHT22;62116;43.582;1.470;2022-10-31T01:22:22;19.94;76.44
65584;DHT22;62116;43.582;1.470;2022-10-31T01:24:48;19.96;76.32
65584;DHT22;62116;43.582;1.470;2022-10-31T01:27:14;19.94;76.27
65584;DHT22;62116;43.582;1.470;2022-10-31T01:29:39;19.94;76.29
65584;DHT22;62116;43.582;1.470;2022-10-31T01:32:04;19.93;76.38
65584;DHT22;62116;43.582;1.470;2022-10-31T01:34:30;19.96;76.36
65584;DHT22;62116;43.582;1.470;2022-10-31T01:36:55;19.89;76.49
65584;DHT22;62116;43.582;1.470;2022-10-31T01:39:21;19.92;76.33
65584;DHT22;62116;43.582;1.470;2022-10-31T01:41:48;19.90;76.58
65584;DHT22;62116;43.582;1.470;2022-10-31T01:47:05;19.80;76.66
65584;DHT22;62116;43.582;1.470;2022-10-31T01:49:53;19.80;76.63
65584;DHT22;62116;43.582;1.470;2022-10-31T01:52:41;19.80;76.70
65584;DHT22;62116;43.582;1.470;2022-10-31T01:55:44;19.76;76.87
65584;DHT22;62116;43.582;1.470;2022-10-31T01:58:23;19.75;76.84
65584;DHT22;62116;43.582;1.470;2022-10-31T02:00:51;19.73;76.87
65584;DHT22;62116;43.582;1.470;2022-10-31T02:03:20;19.75;76.81
65584;DHT22;62116;43.582;1.470;2022-10-31T02:05:46;19.70;77.03
65584;DHT22;62116;43.582;1.470;2022-10-31T02:08:16;19.69;77.03
65584;DHT22;62116;43.582;1.470;2022-10-31T02:10:43;19.67;77.09
65584;DHT22;62116;43.582;1.470;2022-10-31T02:13:09;19.66;77.01
65584;DHT22;62116;43.582;1.470;2022-10-31T02:15:39;19.70;76.86
65584;DHT22;62116;43.582;1.470;2022-10-31T02:18:05;19.69;76.95
65584;DHT22;62116;43.582;1.470;2022-10-31T02:20:35;19.66;76.89
65584;DHT22;62116;43.582;1.470;2022-10-31T02:31:33;19.63;76.96
65584;DHT22;62116;43.582;1.470;2022-10-31T02:34:17;19.61;76.87
65584;DHT22;62116;43.582;1.470;2022-10-31T02:36:57;19.62;76.82
65584;DHT22;62116;43.582;1.470;2022-10-31T02:39:26;19.59;76.90
65584;DHT22;62116;43.582;1.470;2022-10-31T02:42:16;19.59;76.88
65584;DHT22;62116;43.582;1.470;2022-10-31T02:45:00;19.58;76.80
65584;DHT22;62116;43.582;1.470;2022-10-31T02:47:30;19.58;76.85
65584;DHT22;62116;43.582;1.470;2022-10-31T02:50:04;19.58;76.77
65584;DHT22;62116;43.582;1.470;2022-10-31T02:52:33;19.51;77.07
65584;DHT22;62116;43.582;1.470;2022-10-31T02:55:58;19.46;77.16
65584;DHT22;62116;43.582;1.470;2022-10-31T02:58:12;19.48;77.04
65584;DHT22;62116;43.582;1.470;2022-10-31T03:00:49;19.48;76.91
65584;DHT22;62116;43.582;1.470;2022-10-31T03:06:09;19.45;77.04
65584;DHT22;62116;43.582;1.470;2022-10-31T03:11:08;19.44;77.21
65584;DHT22;62116;43.582;1.470;2022-10-31T03:13:51;19.44;77.05
65584;DHT22;62116;43.582;1.470;2022-10-31T03:18:57;19.45;76.89
65584;DHT22;62116;43.582;1.470;2022-10-31T03:23:51;19.44;77.07
65584;DHT22;62116;43.582;1.470;2022-10-31T03:26:19;19.44;77.05
65584;DHT22;62116;43.582;1.470;2022-10-31T03:29:06;19.42;77.06
65584;DHT22;62116;43.582;1.470;2022-10-31T03:31:40;19.41;77.08
65584;DHT22;62116;43.582;1.470;2022-10-31T03:34:08;19.38;76.99
65584;DHT22;62116;43.582;1.470;2022-10-31T03:36:37;19.32;77.27
65584;DHT22;62116;43.582;1.470;2022-10-31T03:39:04;19.36;77.27
65584;DHT22;62116;43.582;1.470;2022-10-31T03:41:33;19.35;77.31
65584;DHT22;62116;43.582;1.470;2022-10-31T03:44:10;19.32;77.29
65584;DHT22;62116;43.582;1.470;2022-10-31T03:46:37;19.32;77.33
65584;DHT22;62116;43.582;1.470;2022-10-31T03:49:03;19.31;77.53
65584;DHT22;62116;43.582;1.470;2022-10-31T03:51:40;19.28;77.45
65584;DHT22;62116;43.582;1.470;2022-10-31T03:56:44;19.26;77.42
65584;DHT22;62116;43.582;1.470;2022-10-31T03:59:28;19.26;77.29
65584;DHT22;62116;43.582;1.470;2022-10-31T04:01:59;19.25;77.45
65584;DHT22;62116;43.582;1.470;2022-10-31T04:04:26;19.26;77.36
65584;DHT22;62116;43.582;1.470;2022-10-31T04:06:54;19.25;77.32
65584;DHT22;62116;43.582;1.470;2022-10-31T04:09:20;19.26;77.27
65584;DHT22;62116;43.582;1.470;2022-10-31T04:11:49;19.26;77.31
65584;DHT22;62116;43.582;1.470;2022-10-31T04:14:15;19.28;77.26
65584;DHT22;62116;43.582;1.470;2022-10-31T04:16:42;19.28;77.37
65584;DHT22;62116;43.582;1.470;2022-10-31T04:19:09;19.25;77.40
65584;DHT22;62116;43.582;1.470;2022-10-31T04:21:34;19.24;77.39
65584;DHT22;62116;43.582;1.470;2022-10-31T04:24:00;19.21;77.51
65584;DHT22;62116;43.582;1.470;2022-10-31T04:26:25;19.22;77.50
65584;DHT22;62116;43.582;1.470;2022-10-31T04:28:51;19.21;77.57
65584;DHT22;62116;43.582;1.470;2022-10-31T04:31:16;19.16;77.80
65584;DHT22;62116;43.582;1.470;2022-10-31T04:33:42;19.18;77.88
65584;DHT22;62116;43.582;1.470;2022-10-31T04:36:07;19.19;77.75
65584;DHT22;62116;43.582;1.470;2022-10-31T04:38:33;19.18;77.77
65584;DHT22;62116;43.582;1.470;2022-10-31T04:40:59;19.18;77.80
65584;DHT22;62116;43.582;1.470;2022-10-31T04:43:24;19.18;77.82
65584;DHT22;62116;43.582;1.470;2022-10-31T04:45:50;19.18;77.80
65584;DHT22;62116;43.582;1.470;2022-10-31T04:48:15;19.15;77.93
65584;DHT22;62116;43.582;1.470;2022-10-31T04:50:40;19.15;77.84
65584;DHT22;62116;43.582;1.470;2022-10-31T04:53:06;19.14;77.87
65584;DHT22;62116;43.582;1.470;2022-10-31T04:55:31;19.15;77.87
65584;DHT22;62116;43.582;1.470;2022-10-31T04:57:57;19.16;77.93
65584;DHT22;62116;43.582;1.470;2022-10-31T05:00:23;19.15;77.84
65584;DHT22;62116;43.582;1.470;2022-10-31T05:02:53;19.15;77.82
65584;DHT22;62116;43.582;1.470;2022-10-31T05:05:21;19.16;77.75
65584;DHT22;62116;43.582;1.470;2022-10-31T05:07:48;19.15;77.95
65584;DHT22;62116;43.582;1.470;2022-10-31T05:10:16;19.15;77.79
65584;DHT22;62116;43.582;1.470;2022-10-31T05:12:50;19.15;77.65
65584;DHT22;62116;43.582;1.470;2022-10-31T05:15:16;19.16;77.56
65584;DHT22;62116;43.582;1.470;2022-10-31T05:17:43;19.14;77.69
65584;DHT22;62116;43.582;1.470;2022-10-31T05:20:10;19.12;77.75
65584;DHT22;62116;43.582;1.470;2022-10-31T05:22:35;19.14;77.72
65584;DHT22;62116;43.582;1.470;2022-10-31T05:25:01;19.11;77.76
65584;DHT22;62116;43.582;1.470;2022-10-31T05:27:26;19.11;77.79
65584;DHT22;62116;43.582;1.470;2022-10-31T05:29:52;19.08;77.78
65584;DHT22;62116;43.582;1.470;2022-10-31T05:32:17;19.11;77.90
65584;DHT22;62116;43.582;1.470;2022-10-31T05:34:43;19.08;78.00
65584;DHT22;62116;43.582;1.470;2022-10-31T05:37:08;19.04;77.99
65584;DHT22;62116;43.582;1.470;2022-10-31T05:39:33;19.05;77.98
65584;DHT22;62116;43.582;1.470;2022-10-31T05:41:59;19.07;78.05
65584;DHT22;62116;43.582;1.470;2022-10-31T05:44:24;19.07;78.05
65584;DHT22;62116;43.582;1.470;2022-10-31T05:46:50;19.02;78.13
65584;DHT22;62116;43.582;1.470;2022-10-31T05:49:15;19.02;77.92
65584;DHT22;62116;43.582;1.470;2022-10-31T05:51:42;19.04;77.96
65584;DHT22;62116;43.582;1.470;2022-10-31T05:54:07;19.04;77.89
65584;DHT22;62116;43.582;1.470;2022-10-31T05:56:33;19.07;77.87
65584;DHT22;62116;43.582;1.470;2022-10-31T05:58:58;19.02;77.81
65584;DHT22;62116;43.582;1.470;2022-10-31T06:01:23;19.02;77.83
65584;DHT22;62116;43.582;1.470;2022-10-31T06:03:49;19.01;77.84
65584;DHT22;62116;43.582;1.470;2022-10-31T06:06:14;19.02;77.58
65584;DHT22;62116;43.582;1.470;2022-10-31T06:08:40;19.00;77.70
65584;DHT22;62116;43.582;1.470;2022-10-31T06:11:05;19.02;77.68
65584;DHT22;62116;43.582;1.470;2022-10-31T06:13:31;19.00;77.75
65584;DHT22;62116;43.582;1.470;2022-10-31T06:15:56;19.00;77.43
65584;DHT22;62116;43.582;1.470;2022-10-31T06:18:21;19.00;77.57
65584;DHT22;62116;43.582;1.470;2022-10-31T06:20:47;19.00;77.49
65584;DHT22;62116;43.582;1.470;2022-10-31T06:23:12;19.00;77.41
65584;DHT22;62116;43.582;1.470;2022-10-31T06:25:37;18.97;77.28
65584;DHT22;62116;43.582;1.470;2022-10-31T06:28:03;18.91;77.38
65584;DHT22;62116;43.582;1.470;2022-10-31T06:30:29;18.85;77.42
65584;DHT22;62116;43.582;1.470;2022-10-31T06:32:54;18.87;77.61
65584;DHT22;62116;43.582;1.470;2022-10-31T06:35:20;18.90;77.59
65584;DHT22;62116;43.582;1.470;2022-10-31T06:37:54;18.90;77.56
65584;DHT22;62116;43.582;1.470;2022-10-31T06:40:20;18.87;77.82
65584;DHT22;62116;43.582;1.470;2022-10-31T06:42:45;18.90;77.70
65584;DHT22;62116;43.582;1.470;2022-10-31T06:45:11;18.91;77.75
65584;DHT22;62116;43.582;1.470;2022-10-31T06:47:36;18.87;77.70
65584;DHT22;62116;43.582;1.470;2022-10-31T06:50:02;18.92;77.81
65584;DHT22;62116;43.582;1.470;2022-10-31T06:52:27;18.91;77.87
65584;DHT22;62116;43.582;1.470;2022-10-31T06:54:52;18.92;78.09
65584;DHT22;62116;43.582;1.470;2022-10-31T06:57:18;18.97;77.93
65584;DHT22;62116;43.582;1.470;2022-10-31T06:59:43;18.97;77.96
65584;DHT22;62116;43.582;1.470;2022-10-31T07:02:09;19.01;77.87
65584;DHT22;62116;43.582;1.470;2022-10-31T07:04:35;19.04;77.97
65584;DHT22;62116;43.582;1.470;2022-10-31T07:07:01;19.05;77.75
65584;DHT22;62116;43.582;1.470;2022-10-31T07:09:26;19.04;77.93
65584;DHT22;62116;43.582;1.470;2022-10-31T07:11:53;19.11;77.80
65584;DHT22;62116;43.582;1.470;2022-10-31T07:14:19;19.12;77.71
65584;DHT22;62116;43.582;1.470;2022-10-31T07:16:49;19.18;77.69
65584;DHT22;62116;43.582;1.470;2022-10-31T07:19:15;19.19;77.73
65584;DHT22;62116;43.582;1.470;2022-10-31T07:21:40;19.16;77.90
65584;DHT22;62116;43.582;1.470;2022-10-31T07:24:06;19.22;77.71
65584;DHT22;62116;43.582;1.470;2022-10-31T07:26:31;19.24;77.82
65584;DHT22;62116;43.582;1.470;2022-10-31T07:28:57;19.28;77.86
65584;DHT22;62116;43.582;1.470;2022-10-31T07:31:24;19.29;77.66
65584;DHT22;62116;43.582;1.470;2022-10-31T07:33:49;19.35;77.79
65584;DHT22;62116;43.582;1.470;2022-10-31T07:36:15;19.39;77.61
65584;DHT22;62116;43.582;1.470;2022-10-31T07:38:40;19.42;77.59
65584;DHT22;62116;43.582;1.470;2022-10-31T07:41:06;19.45;77.41
65584;DHT22;62116;43.582;1.470;2022-10-31T07:43:31;19.46;77.56
65584;DHT22;62116;43.582;1.470;2022-10-31T07:45:56;19.51;77.31
65584;DHT22;62116;43.582;1.470;2022-10-31T07:48:22;19.52;77.13
65584;DHT22;62116;43.582;1.470;2022-10-31T07:50:47;19.51;77.18
65584;DHT22;62116;43.582;1.470;2022-10-31T07:53:14;19.52;77.05
65584;DHT22;62116;43.582;1.470;2022-10-31T07:55:40;19.55;77.01
65584;DHT22;62116;43.582;1.470;2022-10-31T07:58:11;19.56;76.88
65584;DHT22;62116;43.582;1.470;2022-10-31T08:00:38;19.58;77.03
65584;DHT22;62116;43.582;1.470;2022-10-31T08:03:09;19.56;76.89
65584;DHT22;62116;43.582;1.470;2022-10-31T08:05:36;19.59;76.82
65584;DHT22;62116;43.582;1.470;2022-10-31T08:08:03;19.58;76.75
65584;DHT22;62116;43.582;1.470;2022-10-31T08:10:30;19.65;76.58
65584;DHT22;62116;43.582;1.470;2022-10-31T08:13:08;19.77;76.28
65584;DHT22;62116;43.582;1.470;2022-10-31T08:15:34;19.97;75.96
65584;DHT22;62116;43.582;1.470;2022-10-31T08:18:02;20.20;75.32
65584;DHT22;62116;43.582;1.470;2022-10-31T08:20:28;20.44;74.55
65584;DHT22;62116;43.582;1.470;2022-10-31T08:22:55;20.64;73.93
65584;DHT22;62116;43.582;1.470;2022-10-31T08:25:21;20.90;73.43
65584;DHT22;62116;43.582;1.470;2022-10-31T08:27:54;21.19;72.61
65584;DHT22;62116;43.582;1.470;2022-10-31T08:30:20;21.48;71.22
65584;DHT22;62116;43.582;1.470;2022-10-31T08:32:56;21.78;70.01
65584;DHT22;62116;43.582;1.470;2022-10-31T08:35:21;21.97;68.29
65584;DHT22;62116;43.582;1.470;2022-10-31T08:37:52;22.20;67.81
65584;DHT22;62116;43.582;1.470;2022-10-31T08:40:17;22.32;66.93
65584;DHT22;62116;43.582;1.470;2022-10-31T08:42:43;22.37;66.34
65584;DHT22;62116;43.582;1.470;2022-10-31T08:45:08;22.53;66.03
65584;DHT22;62116;43.582;1.470;2022-10-31T08:47:34;22.61;65.82
65584;DHT22;62116;43.582;1.470;2022-10-31T08:49:59;22.68;65.23
65584;DHT22;62116;43.582;1.470;2022-10-31T08:52:25;22.74;64.42
65584;DHT22;62116;43.582;1.470;2022-10-31T08:54:51;22.64;64.16
65584;DHT22;62116;43.582;1.470;2022-10-31T08:57:16;22.61;64.33
65584;DHT22;62116;43.582;1.470;2022-10-31T08:59:42;22.74;64.14
65584;DHT22;62116;43.582;1.470;2022-10-31T09:02:07;22.87;63.93
65584;DHT22;62116;43.582;1.470;2022-10-31T09:04:32;22.95;63.47
65584;DHT22;62116;43.582;1.470;2022-10-31T09:06:58;23.01;62.68
65584;DHT22;62116;43.582;1.470;2022-10-31T09:09:23;23.12;62.82
65584;DHT22;62116;43.582;1.470;2022-10-31T09:11:48;23.16;62.51
65584;DHT22;62116;43.582;1.470;2022-10-31T09:14:14;23.18;62.54
65584;DHT22;62116;43.582;1.470;2022-10-31T09:16:39;23.12;62.06
65584;DHT22;62116;43.582;1.470;2022-10-31T09:19:05;23.09;62.33
65584;DHT22;62116;43.582;1.470;2022-10-31T09:21:30;23.19;61.79
65584;DHT22;62116;43.582;1.470;2022-10-31T09:23:55;23.22;60.99
65584;DHT22;62116;43.582;1.470;2022-10-31T09:26:21;23.07;61.32
65584;DHT22;62116;43.582;1.470;2022-10-31T09:28:46;23.08;61.71
65584;DHT22;62116;43.582;1.470;2022-10-31T09:31:12;23.19;61.55
65584;DHT22;62116;43.582;1.470;2022-10-31T09:33:37;23.15;61.47
65584;DHT22;62116;43.582;1.470;2022-10-31T09:36:03;23.19;61.27
65584;DHT22;62116;43.582;1.470;2022-10-31T09:38:28;23.25;60.73
65584;DHT22;62116;43.582;1.470;2022-10-31T09:43:51;23.48;59.90
65584;DHT22;62116;43.582;1.470;2022-10-31T09:51:37;23.59;58.64
65584;DHT22;62116;43.582;1.470;2022-10-31T09:56:31;23.72;58.69
65584;DHT22;62116;43.582;1.470;2022-10-31T09:58:59;23.82;58.07
65584;DHT22;62116;43.582;1.470;2022-10-31T10:02:05;23.70;57.78
65584;DHT22;62116;43.582;1.470;2022-10-31T10:07:21;23.77;57.57
65584;DHT22;62116;43.582;1.470;2022-10-31T10:09:48;23.89;57.50
65584;DHT22;62116;43.582;1.470;2022-10-31T10:13:23;24.04;57.49
65584;DHT22;62116;43.582;1.470;2022-10-31T10:18:57;24.24;57.40
65584;DHT22;62116;43.582;1.470;2022-10-31T10:24:50;24.41;57.77
65584;DHT22;62116;43.582;1.470;2022-10-31T10:27:19;24.50;56.53
65584;DHT22;62116;43.582;1.470;2022-10-31T10:29:51;24.51;55.35
65584;DHT22;62116;43.582;1.470;2022-10-31T10:32:23;24.51;54.97
65584;DHT22;62116;43.582;1.470;2022-10-31T10:34:52;24.58;55.18
65584;DHT22;62116;43.582;1.470;2022-10-31T10:37:30;24.60;55.15
65584;DHT22;62116;43.582;1.470;2022-10-31T10:40:13;24.57;55.39
65584;DHT22;62116;43.582;1.470;2022-10-31T10:42:39;24.54;54.86
65584;DHT22;62116;43.582;1.470;2022-10-31T10:45:24;24.58;54.84
65584;DHT22;62116;43.582;1.470;2022-10-31T10:48:16;24.58;55.30
65584;DHT22;62116;43.582;1.470;2022-10-31T10:50:48;24.61;55.24
65584;DHT22;62116;43.582;1.470;2022-10-31T10:53:20;24.63;53.48
65584;DHT22;62116;43.582;1.470;2022-10-31T10:56:23;24.58;52.46
65584;DHT22;62116;43.582;1.470;2022-10-31T10:58:45;24.51;52.44
65584;DHT22;62116;43.582;1.470;2022-10-31T11:01:14;24.48;52.47
65584;DHT22;62116;43.582;1.470;2022-10-31T11:03:41;24.47;52.47
65584;DHT22;62116;43.582;1.470;2022-10-31T11:06:20;24.41;52.91
65584;DHT22;62116;43.582;1.470;2022-10-31T11:08:50;24.48;53.61
65584;DHT22;62116;43.582;1.470;2022-10-31T11:13:44;24.44;53.46
65584;DHT22;62116;43.582;1.470;2022-10-31T11:16:15;24.48;53.04
65584;DHT22;62116;43.582;1.470;2022-10-31T11:18:52;24.47;52.04
65584;DHT22;62116;43.582;1.470;2022-10-31T11:21:27;24.44;52.19
65584;DHT22;62116;43.582;1.470;2022-10-31T11:26:34;24.40;52.34
65584;DHT22;62116;43.582;1.470;2022-10-31T11:29:00;24.37;52.93
65584;DHT22;62116;43.582;1.470;2022-10-31T11:31:28;24.34;53.40
65584;DHT22;62116;43.582;1.470;2022-10-31T11:34:03;24.34;53.44
65584;DHT22;62116;43.582;1.470;2022-10-31T11:36:39;24.33;52.92
65584;DHT22;62116;43.582;1.470;2022-10-31T11:39:16;24.36;53.17
65584;DHT22;62116;43.582;1.470;2022-10-31T11:41:42;24.34;53.11
65584;DHT22;62116;43.582;1.470;2022-10-31T11:44:26;24.33;53.29
65584;DHT22;62116;43.582;1.470;2022-10-31T11:46:58;24.34;53.67
65584;DHT22;62116;43.582;1.470;2022-10-31T11:49:38;24.34;53.33
65584;DHT22;62116;43.582;1.470;2022-10-31T11:52:27;24.28;53.09
65584;DHT22;62116;43.582;1.470;2022-10-31T11:54:54;24.31;53.27
65584;DHT22;62116;43.582;1.470;2022-10-31T11:57:30;24.28;53.49
65584;DHT22;62116;43.582;1.470;2022-10-31T11:59:58;24.28;52.81
65584;DHT22;62116;43.582;1.470;2022-10-31T12:02:24;24.33;53.04
65584;DHT22;62116;43.582;1.470;2022-10-31T12:05:02;24.33;53.28
65584;DHT22;62116;43.582;1.470;2022-10-31T12:07:30;24.34;53.22
65584;DHT22;62116;43.582;1.470;2022-10-31T12:09:55;24.34;53.11
65584;DHT22;62116;43.582;1.470;2022-10-31T12:17:42;24.40;52.28
65584;DHT22;62116;43.582;1.470;2022-10-31T12:23:44;24.40;51.63
65584;DHT22;62116;43.582;1.470;2022-10-31T12:26:25;24.41;51.75
65584;DHT22;62116;43.582;1.470;2022-10-31T12:28:57;24.37;51.65
65584;DHT22;62116;43.582;1.470;2022-10-31T12:31:37;24.34;51.54
65584;DHT22;62116;43.582;1.470;2022-10-31T12:37:51;24.28;52.66
65584;DHT22;62116;43.582;1.470;2022-10-31T12:51:22;24.21;52.62
65584;DHT22;62116;43.582;1.470;2022-10-31T13:00:14;24.20;52.62
65584;DHT22;62116;43.582;1.470;2022-10-31T13:03:08;24.20;52.41
65584;DHT22;62116;43.582;1.470;2022-10-31T13:05:39;24.16;52.24
65584;DHT22;62116;43.582;1.470;2022-10-31T13:08:15;24.18;52.43
65584;DHT22;62116;43.582;1.470;2022-10-31T13:10:52;24.17;52.24
65584;DHT22;62116;43.582;1.470;2022-10-31T13:13:36;24.14;52.87
65584;DHT22;62116;43.582;1.470;2022-10-31T13:16:15;24.13;53.14
65584;DHT22;62116;43.582;1.470;2022-10-31T13:18:51;24.12;53.37
65584;DHT22;62116;43.582;1.470;2022-10-31T13:21:22;24.13;53.28
65584;DHT22;62116;43.582;1.470;2022-10-31T13:23:50;24.16;52.95
65584;DHT22;62116;43.582;1.470;2022-10-31T13:26:50;24.18;52.87
65584;DHT22;62116;43.582;1.470;2022-10-31T13:32:15;24.20;53.10
65584;DHT22;62116;43.582;1.470;2022-10-31T13:34:44;24.20;52.44
65584;DHT22;62116;43.582;1.470;2022-10-31T13:37:36;24.24;52.43
65584;DHT22;62116;43.582;1.470;2022-10-31T13:42:49;24.21;52.58
65584;DHT22;62116;43.582;1.470;2022-10-31T13:45:21;24.21;52.43
65584;DHT22;62116;43.582;1.470;2022-10-31T13:50:41;24.14;52.70
65584;DHT22;62116;43.582;1.470;2022-10-31T13:53:19;24.16;52.77
65584;DHT22;62116;43.582;1.470;2022-10-31T13:56:13;24.10;52.68
65584;DHT22;62116;43.582;1.470;2022-10-31T13:58:35;24.06;52.97
65584;DHT22;62116;43.582;1.470;2022-10-31T14:03:37;24.06;53.51
65584;DHT22;62116;43.582;1.470;2022-10-31T14:06:05;24.04;53.59
65584;DHT22;62116;43.582;1.470;2022-10-31T14:08:33;24.02;53.31
65584;DHT22;62116;43.582;1.470;2022-10-31T14:10:59;24.00;53.50
65584;DHT22;62116;43.582;1.470;2022-10-31T14:13:33;23.94;53.77
65584;DHT22;62116;43.582;1.470;2022-10-31T14:16:15;23.92;54.05
65584;DHT22;62116;43.582;1.470;2022-10-31T14:18:46;23.87;54.26
65584;DHT22;62116;43.582;1.470;2022-10-31T14:23:51;23.86;54.07
65584;DHT22;62116;43.582;1.470;2022-10-31T14:28:51;23.79;54.02
65584;DHT22;62116;43.582;1.470;2022-10-31T14:33:52;23.72;54.37
65584;DHT22;62116;43.582;1.470;2022-10-31T14:36:24;23.69;54.55
65584;DHT22;62116;43.582;1.470;2022-10-31T14:39:00;23.67;54.76
65584;DHT22;62116;43.582;1.470;2022-10-31T14:52:07;23.56;55.25
65584;DHT22;62116;43.582;1.470;2022-10-31T14:54:39;23.58;55.43
65584;DHT22;62116;43.582;1.470;2022-10-31T14:57:29;23.50;55.72
65584;DHT22;62116;43.582;1.470;2022-10-31T15:00:01;23.52;55.90
65584;DHT22;62116;43.582;1.470;2022-10-31T15:05:11;23.46;56.19
65584;DHT22;62116;43.582;1.470;2022-10-31T15:07:36;23.43;56.22
65584;DHT22;62116;43.582;1.470;2022-10-31T15:12:46;23.41;56.35
65584;DHT22;62116;43.582;1.470;2022-10-31T15:15:13;23.37;56.25
65584;DHT22;62116;43.582;1.470;2022-10-31T15:17:44;23.37;56.26
65584;DHT22;62116;43.582;1.470;2022-10-31T15:20:12;23.37;56.52
65584;DHT22;62116;43.582;1.470;2022-10-31T15:22:42;23.29;56.63
65584;DHT22;62116;43.582;1.470;2022-10-31T15:25:17;23.29;56.77
65584;DHT22;62116;43.582;1.470;2022-10-31T15:27:43;23.25;56.80
65584;DHT22;62116;43.582;1.470;2022-10-31T15:30:20;23.22;57.01
65584;DHT22;62116;43.582;1.470;2022-10-31T15:32:46;23.20;57.17
65584;DHT22;62116;43.582;1.470;2022-10-31T15:35:29;23.16;57.41
65584;DHT22;62116;43.582;1.470;2022-10-31T15:37:56;23.15;57.59
65584;DHT22;62116;43.582;1.470;2022-10-31T15:40:24;23.11;57.71
65584;DHT22;62116;43.582;1.470;2022-10-31T15:42:53;23.12;57.77
65584;DHT22;62116;43.582;1.470;2022-10-31T15:45:23;23.05;58.33
65584;DHT22;62116;43.582;1.470;2022-10-31T15:47:57;23.05;58.47
65584;DHT22;62116;43.582;1.470;2022-10-31T15:50:28;23.04;58.12
65584;DHT22;62116;43.582;1.470;2022-10-31T15:52:55;22.99;58.32
65584;DHT22;62116;43.582;1.470;2022-10-31T15:55:23;22.97;58.84
65584;DHT22;62116;43.582;1.470;2022-10-31T15:57:51;22.94;58.86
65584;DHT22;62116;43.582;1.470;2022-10-31T16:00:36;22.94;59.02
65584;DHT22;62116;43.582;1.470;2022-10-31T16:05:45;22.90;59.65
65584;DHT22;62116;43.582;1.470;2022-10-31T16:08:33;22.87;59.90
65584;DHT22;62116;43.582;1.470;2022-10-31T16:13:42;22.88;60.07
65584;DHT22;62116;43.582;1.470;2022-10-31T16:16:17;22.79;60.46
65584;DHT22;62116;43.582;1.470;2022-10-31T16:18:45;22.79;60.71
65584;DHT22;62116;43.582;1.470;2022-10-31T16:21:11;22.79;60.78
65584;DHT22;62116;43.582;1.470;2022-10-31T16:23:39;22.78;60.96
65584;DHT22;62116;43.582;1.470;2022-10-31T16:26:08;22.75;61.16
65584;DHT22;62116;43.582;1.470;2022-10-31T16:28:35;22.77;61.35
65584;DHT22;62116;43.582;1.470;2022-10-31T16:31:01;22.72;61.50
65584;DHT22;62116;43.582;1.470;2022-10-31T16:33:37;22.69;61.54
65584;DHT22;62116;43.582;1.470;2022-10-31T16:36:29;22.74;61.61
65584;DHT22;62116;43.582;1.470;2022-10-31T16:38:56;22.74;61.69
65584;DHT22;62116;43.582;1.470;2022-10-31T16:41:23;22.71;61.97
65584;DHT22;62116;43.582;1.470;2022-10-31T16:43:49;22.72;62.21
65584;DHT22;62116;43.582;1.470;2022-10-31T16:46:22;22.69;62.36
65584;DHT22;62116;43.582;1.470;2022-10-31T16:48:48;22.69;62.81
65584;DHT22;62116;43.582;1.470;2022-10-31T16:51:14;22.67;63.05
65584;DHT22;62116;43.582;1.470;2022-10-31T16:53:39;22.65;63.22
65584;DHT22;62116;43.582;1.470;2022-10-31T16:56:17;22.67;63.60
65584;DHT22;62116;43.582;1.470;2022-10-31T16:58:43;22.64;63.80
65584;DHT22;62116;43.582;1.470;2022-10-31T17:01:10;22.64;64.12
65584;DHT22;62116;43.582;1.470;2022-10-31T17:03:36;22.64;64.17
65584;DHT22;62116;43.582;1.470;2022-10-31T17:06:02;22.64;64.52
65584;DHT22;62116;43.582;1.470;2022-10-31T17:08:27;22.63;64.37
65584;DHT22;62116;43.582;1.470;2022-10-31T17:10:54;22.61;64.43
65584;DHT22;62116;43.582;1.470;2022-10-31T17:13:22;22.58;64.70
65584;DHT22;62116;43.582;1.470;2022-10-31T17:15:50;22.57;64.79
65584;DHT22;62116;43.582;1.470;2022-10-31T17:18:16;22.61;64.83
65584;DHT22;62116;43.582;1.470;2022-10-31T17:20:43;22.61;64.64
65584;DHT22;62116;43.582;1.470;2022-10-31T17:23:10;22.60;64.79
65584;DHT22;62116;43.582;1.470;2022-10-31T17:25:36;22.60;64.81
65584;DHT22;62116;43.582;1.470;2022-10-31T17:28:02;22.61;64.95
65584;DHT22;62116;43.582;1.470;2022-10-31T17:30:27;22.63;64.99
65584;DHT22;62116;43.582;1.470;2022-10-31T17:32:53;22.61;64.83
65584;DHT22;62116;43.582;1.470;2022-10-31T17:35:20;22.61;64.94
65584;DHT22;62116;43.582;1.470;2022-10-31T17:37:46;22.58;65.33
65584;DHT22;62116;43.582;1.470;2022-10-31T17:40:14;22.57;65.47
65584;DHT22;62116;43.582;1.470;2022-10-31T17:42:40;22.58;65.29
65584;DHT22;62116;43.582;1.470;2022-10-31T17:45:07;22.58;65.20